Terminal Aerodrome Forecast
Issued by NWS Norman, OK

Home | Current Version | Previous Version | Text Only | Print | Product List | Glossary On
Versions: 1 2 3 4 5 6 7 8 9 10 11 12
000
FTUS44 KOUN 270520
TAFSPS
TAF
KSPS 270520Z 2706/2806 06006KT P6SM SCT120
     FM271000 11007KT 3SM -DZ BR OVC008
     FM271600 18013KT P6SM SCT015
      TEMPO 2716/2719 BKN015=

USA.gov is the U.S. government's official web portal to all federal, state and local government web resources and services.